createdAt,value
2017-08-24T00:00:17.943Z,84.46
2017-08-24T00:01:17.938Z,84.46
2017-08-24T00:02:17.937Z,84.55
2017-08-24T00:03:17.931Z,84.27
2017-08-24T00:04:17.930Z,84.36
2017-08-24T00:05:17.925Z,84.84
2017-08-24T00:06:17.924Z,84.84
2017-08-24T00:07:17.918Z,85.13
2017-08-24T00:08:17.922Z,85.13
2017-08-24T00:09:17.919Z,84.36
2017-08-24T00:10:17.912Z,84.75
2017-08-24T00:11:17.912Z,83.98
2017-08-24T00:12:17.908Z,84.94
2017-08-24T00:13:17.902Z,85.03
2017-08-24T00:14:17.902Z,83.98
2017-08-24T00:15:17.898Z,85.23
2017-08-24T00:16:17.889Z,85.33
2017-08-24T00:17:17.887Z,85.03
2017-08-24T00:18:17.883Z,85.23
2017-08-24T00:19:17.882Z,85.52
2017-08-24T00:20:17.875Z,86.00
2017-08-24T00:21:17.876Z,85.81
2017-08-24T00:22:17.870Z,86.00
2017-08-24T00:23:17.868Z,85.03
2017-08-24T00:24:17.869Z,84.94
2017-08-24T00:25:17.864Z,84.75
2017-08-24T00:26:17.862Z,85.81
2017-08-24T00:27:17.858Z,86.00
2017-08-24T00:28:17.849Z,86.00
2017-08-24T00:29:17.848Z,85.91
2017-08-24T00:30:17.842Z,85.61
2017-08-24T00:31:17.842Z,85.71
2017-08-24T00:32:17.843Z,85.71
2017-08-24T00:33:17.837Z,85.81
2017-08-24T00:34:17.836Z,85.71
2017-08-24T00:35:17.832Z,85.52
2017-08-24T00:36:17.829Z,86.10
2017-08-24T00:37:17.824Z,85.42
2017-08-24T00:38:17.824Z,85.61
2017-08-24T00:39:17.819Z,85.46
2017-08-24T00:40:17.811Z,85.52
2017-08-24T00:41:17.810Z,84.84
2017-08-24T00:42:17.805Z,85.23
2017-08-24T00:43:17.804Z,85.33
2017-08-24T00:44:17.801Z,85.61
2017-08-24T00:45:17.797Z,85.81
2017-08-24T00:46:17.793Z,85.17
2017-08-24T00:47:17.789Z,85.75
2017-08-24T00:48:17.789Z,84.89
2017-08-24T00:49:17.789Z,85.66
2017-08-24T00:50:17.784Z,85.46
2017-08-24T00:51:17.781Z,85.37
2017-08-24T00:52:17.778Z,85.56
2017-08-24T00:53:17.777Z,85.03
2017-08-24T00:54:17.771Z,84.94
2017-08-24T00:55:17.770Z,84.75
2017-08-24T00:56:17.768Z,85.75
2017-08-24T00:57:17.758Z,85.52
2017-08-24T00:58:17.755Z,85.81
2017-08-24T00:59:17.753Z,85.42
2017-08-24T01:00:17.748Z,85.61
2017-08-24T01:01:17.748Z,85.13
2017-08-24T01:02:17.742Z,85.42
2017-08-24T01:03:17.740Z,86.29
2017-08-24T01:04:17.743Z,85.61
2017-08-24T01:05:17.737Z,86.10
2017-08-24T01:06:17.736Z,85.71
2017-08-24T01:07:17.731Z,85.91
2017-08-24T01:08:17.728Z,85.75
2017-08-24T01:09:17.725Z,85.94
2017-08-24T01:10:17.723Z,85.61
2017-08-24T01:11:17.719Z,85.71
2017-08-24T01:12:17.710Z,85.91
2017-08-24T01:13:17.710Z,85.66
2017-08-24T01:14:17.704Z,86.00
2017-08-24T01:15:17.705Z,86.00
2017-08-24T01:16:17.700Z,86.29
2017-08-24T01:17:17.695Z,86.39
2017-08-24T01:18:17.695Z,86.19
2017-08-24T01:19:17.690Z,86.29
2017-08-24T01:20:17.690Z,86.10
2017-08-24T01:21:17.693Z,86.10
2017-08-24T01:22:17.683Z,85.91
2017-08-24T01:23:17.683Z,86.48
2017-08-24T01:24:17.678Z,85.71
2017-08-24T01:25:17.676Z,86.39
2017-08-24T01:26:17.672Z,86.48
2017-08-24T01:27:17.670Z,86.48
2017-08-24T01:28:17.662Z,86.39
2017-08-24T01:29:17.658Z,86.29
2017-08-24T01:30:17.656Z,85.71
2017-08-24T01:31:17.652Z,86.29
2017-08-24T01:32:17.652Z,86.10
2017-08-24T01:33:17.650Z,86.39
2017-08-24T01:34:17.646Z,86.39
2017-08-24T01:35:17.645Z,86.58
2017-08-24T01:36:17.637Z,86.19
2017-08-24T01:37:17.633Z,86.48
2017-08-24T01:38:17.632Z,86.48
2017-08-24T01:39:17.627Z,86.48
2017-08-24T01:40:17.625Z,86.29
2017-08-24T01:41:17.619Z,86.10
2017-08-24T01:42:17.618Z,85.61
2017-08-24T01:43:17.612Z,85.81
2017-08-24T01:44:17.613Z,85.61
2017-08-24T01:45:17.612Z,85.03
2017-08-24T01:46:17.609Z,84.84
2017-08-24T01:47:17.606Z,84.07
2017-08-24T01:48:17.600Z,84.17
2017-08-24T01:49:17.598Z,83.40
2017-08-24T01:50:17.596Z,83.88
2017-08-24T01:51:17.592Z,83.26
2017-08-24T01:52:17.584Z,82.62
2017-08-24T01:53:17.582Z,82.68
2017-08-24T01:54:17.578Z,81.81
2017-08-24T01:55:17.577Z,81.43
2017-08-24T01:56:17.571Z,80.85
2017-08-24T01:57:17.569Z,80.18
2017-08-24T01:58:17.564Z,80.46
2017-08-24T01:59:17.563Z,80.08
2017-08-24T02:00:17.563Z,80.18
2017-08-24T02:01:17.558Z,80.37
2017-08-24T02:02:17.557Z,80.37
2017-08-24T02:03:17.553Z,80.56
2017-08-24T02:04:17.550Z,80.08
2017-08-24T02:05:17.546Z,79.79
2017-08-24T02:06:17.543Z,80.18
2017-08-24T02:07:17.541Z,80.56
2017-08-24T02:08:17.531Z,79.98
2017-08-24T02:09:17.525Z,79.98
2017-08-24T02:10:17.525Z,80.08
2017-08-24T02:11:17.521Z,80.18
2017-08-24T02:12:17.519Z,79.69
2017-08-24T02:13:17.512Z,79.41
2017-08-24T02:14:17.512Z,79.98
2017-08-24T02:15:17.506Z,79.50
2017-08-24T02:16:17.507Z,79.41
2017-08-24T02:17:17.509Z,79.41
2017-08-24T02:18:17.500Z,79.69
2017-08-24T02:19:17.501Z,79.41
2017-08-24T02:20:17.494Z,79.50
2017-08-24T02:21:17.490Z,80.04
2017-08-24T02:22:17.487Z,80.14
2017-08-24T02:23:17.482Z,80.62
2017-08-24T02:24:17.474Z,80.14
2017-08-24T02:25:17.473Z,80.33
2017-08-24T02:26:17.467Z,80.52
2017-08-24T02:27:17.467Z,80.33
2017-08-24T02:28:17.460Z,80.96
2017-08-24T02:29:17.458Z,80.77
2017-08-24T02:30:17.453Z,81.45
2017-08-24T02:31:17.453Z,81.93
2017-08-24T02:32:17.452Z,81.35
2017-08-24T02:33:17.447Z,81.06
2017-08-24T02:34:17.443Z,82.31
2017-08-24T02:35:17.438Z,81.73
2017-08-24T02:36:17.436Z,82.02
2017-08-24T02:37:17.427Z,82.50
2017-08-24T02:38:17.424Z,83.14
2017-08-24T02:39:17.419Z,82.94
2017-08-24T02:40:17.420Z,82.75
2017-08-24T02:41:17.418Z,82.75
2017-08-24T02:42:17.412Z,82.75
2017-08-24T02:43:17.410Z,82.94
2017-08-24T02:44:17.403Z,83.04
2017-08-24T02:45:17.401Z,83.62
2017-08-24T02:46:17.395Z,83.52
2017-08-24T02:47:17.394Z,82.90
2017-08-24T02:48:17.385Z,82.90
2017-08-24T02:49:17.383Z,83.67
2017-08-24T02:50:17.377Z,83.00
2017-08-24T02:51:17.373Z,83.09
2017-08-24T02:52:17.366Z,83.48
2017-08-24T02:53:17.364Z,82.75
2017-08-24T02:54:17.366Z,83.00
2017-08-24T02:55:17.356Z,83.19
2017-08-24T02:56:17.354Z,82.85
2017-08-24T02:57:17.349Z,82.90
2017-08-24T02:58:17.348Z,83.00
2017-08-24T02:59:17.342Z,83.09
2017-08-24T03:00:17.337Z,82.61
2017-08-24T03:01:17.332Z,82.42
2017-08-24T03:02:17.330Z,83.00
2017-08-24T03:03:17.323Z,82.94
2017-08-24T03:04:17.314Z,82.81
2017-08-24T03:05:17.313Z,82.81
2017-08-24T03:06:17.306Z,83.00
2017-08-24T03:07:17.306Z,82.32
2017-08-24T03:08:17.299Z,83.19
2017-08-24T03:09:17.293Z,83.48
2017-08-24T03:10:17.291Z,83.48
2017-08-24T03:11:17.285Z,83.09
2017-08-24T03:12:17.289Z,83.29
2017-08-24T03:13:17.282Z,83.48
2017-08-24T03:14:17.276Z,83.39
2017-08-24T03:15:17.273Z,83.09
2017-08-24T03:16:17.267Z,83.19
2017-08-24T03:17:17.266Z,83.29
2017-08-24T03:18:17.259Z,83.09
2017-08-24T03:19:17.255Z,83.48
2017-08-24T03:20:17.248Z,82.90
2017-08-24T03:21:17.241Z,83.29
2017-08-24T03:22:17.241Z,83.29
2017-08-24T03:23:17.235Z,83.86
2017-08-24T03:24:17.233Z,83.77
2017-08-24T03:25:17.225Z,84.06
2017-08-24T03:26:17.221Z,83.67
2017-08-24T03:27:17.218Z,83.39
2017-08-24T03:28:17.217Z,84.16
2017-08-24T03:29:17.211Z,83.48
2017-08-24T03:30:17.212Z,84.34
2017-08-24T03:31:17.202Z,83.83
2017-08-24T03:32:17.201Z,84.50
2017-08-24T03:33:17.194Z,84.50
2017-08-24T03:34:17.191Z,84.78
2017-08-24T03:35:17.185Z,84.69
2017-08-24T03:36:17.175Z,84.69
2017-08-24T03:37:17.174Z,84.50
2017-08-24T03:38:17.167Z,85.17
2017-08-24T03:39:17.164Z,85.65
2017-08-24T03:40:17.164Z,85.75
2017-08-24T03:41:17.159Z,85.55
2017-08-24T03:42:17.156Z,85.55
2017-08-24T03:43:17.148Z,85.94
2017-08-24T03:44:17.140Z,85.75
2017-08-24T03:45:17.138Z,86.04
2017-08-24T03:46:17.131Z,86.22
2017-08-24T03:47:17.131Z,86.47
2017-08-24T03:48:17.122Z,86.52
2017-08-24T03:49:17.119Z,86.71
2017-08-24T03:50:17.114Z,86.09
2017-08-24T03:51:17.110Z,86.47
2017-08-24T03:52:17.110Z,86.57
2017-08-24T03:53:17.103Z,86.61
2017-08-24T03:54:17.100Z,86.61
2017-08-24T03:55:17.095Z,86.57
2017-08-24T03:56:17.090Z,86.57
2017-08-24T03:57:17.087Z,86.28
2017-08-24T03:58:17.081Z,86.66
2017-08-24T03:59:17.079Z,86.38
2017-08-24T04:00:17.070Z,86.42
2017-08-24T04:01:17.063Z,86.57
2017-08-24T04:02:17.060Z,86.66
2017-08-24T04:03:17.055Z,86.66
2017-08-24T04:04:17.050Z,86.28
2017-08-24T04:05:17.045Z,86.57
2017-08-24T04:06:17.042Z,86.47
2017-08-24T04:07:17.037Z,86.47
2017-08-24T04:08:17.036Z,86.47
2017-08-24T04:09:17.033Z,86.57
2017-08-24T04:10:17.026Z,86.47
2017-08-24T04:11:17.024Z,86.95
2017-08-24T04:12:17.018Z,86.95
2017-08-24T04:13:17.013Z,87.34
2017-08-24T04:14:17.010Z,87.15
2017-08-24T04:15:17.004Z,87.62
2017-08-24T04:16:16.994Z,87.62
2017-08-24T04:17:16.991Z,87.58
2017-08-24T04:18:16.984Z,87.58
2017-08-24T04:19:16.981Z,87.82
2017-08-24T04:20:16.975Z,88.25
2017-08-24T04:21:16.977Z,88.16
2017-08-24T04:22:16.968Z,88.06
2017-08-24T04:23:16.964Z,88.25
2017-08-24T04:24:16.962Z,88.64
2017-08-24T04:25:16.957Z,88.35
2017-08-24T04:26:16.953Z,88.73
2017-08-24T04:27:16.947Z,88.83
2017-08-24T04:28:16.939Z,88.83
2017-08-24T04:29:16.942Z,87.96
2017-08-24T04:30:16.931Z,88.54
2017-08-24T04:31:16.928Z,88.06
2017-08-24T04:32:16.919Z,88.73
2017-08-24T04:33:16.913Z,88.64
2017-08-24T04:34:16.912Z,88.25
2017-08-24T04:35:16.902Z,88.83
2017-08-24T04:36:16.898Z,89.12
2017-08-24T04:37:16.895Z,89.40
2017-08-24T04:38:16.890Z,89.40
2017-08-24T04:39:16.882Z,89.02
2017-08-24T04:40:16.881Z,88.83
2017-08-24T04:41:16.877Z,88.83
2017-08-24T04:42:16.872Z,89.02
2017-08-24T04:43:16.868Z,88.93
2017-08-24T04:44:16.859Z,89.12
2017-08-24T04:45:16.852Z,89.02
2017-08-24T04:46:16.848Z,88.83
2017-08-24T04:47:16.843Z,88.64
2017-08-24T04:48:16.840Z,89.40
2017-08-24T04:49:16.842Z,89.02
2017-08-24T04:50:16.832Z,88.93
2017-08-24T04:51:16.829Z,89.22
2017-08-24T04:52:16.820Z,88.83
2017-08-24T04:53:16.817Z,88.73
2017-08-24T04:54:16.811Z,88.83
2017-08-24T04:55:16.807Z,88.54
2017-08-24T04:56:16.798Z,88.16
2017-08-24T04:57:16.792Z,88.25
2017-08-24T04:58:16.791Z,88.35
2017-08-24T04:59:16.783Z,88.25
2017-08-24T05:00:16.777Z,87.96
2017-08-24T05:01:16.778Z,88.10
2017-08-24T05:02:16.767Z,88.10
2017-08-24T05:03:16.764Z,88.59
2017-08-24T05:04:16.764Z,88.30
2017-08-24T05:05:16.756Z,88.25
2017-08-24T05:06:16.758Z,87.87
2017-08-24T05:07:16.748Z,87.92
2017-08-24T05:08:16.744Z,88.16
2017-08-24T05:09:16.738Z,88.30
2017-08-24T05:10:16.735Z,88.16
2017-08-24T05:11:16.728Z,88.16
2017-08-24T05:12:16.719Z,88.20
2017-08-24T05:13:16.716Z,88.64
2017-08-24T05:14:16.709Z,88.06
2017-08-24T05:15:16.706Z,89.07
2017-08-24T05:16:16.701Z,88.16
2017-08-24T05:17:16.695Z,88.35
2017-08-24T05:18:16.692Z,88.20
2017-08-24T05:19:16.686Z,88.49
2017-08-24T05:20:16.689Z,88.35
2017-08-24T05:21:16.682Z,88.54
2017-08-24T05:22:16.675Z,88.68
2017-08-24T05:23:16.671Z,88.10
2017-08-24T05:24:16.667Z,88.30
2017-08-24T05:25:16.661Z,88.10
2017-08-24T05:26:16.654Z,88.10
2017-08-24T05:27:16.653Z,88.10
2017-08-24T05:28:16.642Z,88.10
2017-08-24T05:29:16.636Z,88.10
2017-08-24T05:30:16.634Z,88.10
2017-08-24T05:31:16.627Z,88.39
2017-08-24T05:32:16.621Z,87.53
2017-08-24T05:33:16.618Z,87.15
2017-08-24T05:34:16.613Z,87.34
2017-08-24T05:35:16.610Z,87.34
2017-08-24T05:36:16.609Z,87.34
2017-08-24T05:37:16.602Z,87.34
2017-08-24T05:38:16.601Z,87.43
2017-08-24T05:39:16.594Z,87.15
2017-08-24T05:40:16.590Z,87.05
2017-08-24T05:41:16.583Z,87.05
2017-08-24T05:42:16.581Z,86.95
2017-08-24T05:43:16.575Z,87.34
2017-08-24T05:44:16.564Z,86.95
2017-08-24T05:45:16.565Z,87.15
2017-08-24T05:46:16.557Z,87.34
2017-08-24T05:47:16.554Z,86.95
2017-08-24T05:48:16.554Z,86.66
2017-08-24T05:49:16.547Z,86.42
2017-08-24T05:50:16.544Z,86.22
2017-08-24T05:51:16.539Z,86.13
2017-08-24T05:52:16.528Z,86.22
2017-08-24T05:53:16.526Z,85.84
2017-08-24T05:54:16.520Z,84.98
2017-08-24T05:55:16.519Z,85.07
2017-08-24T05:56:16.512Z,84.88
2017-08-24T05:57:16.509Z,84.69
2017-08-24T05:58:16.503Z,84.78
2017-08-24T05:59:16.502Z,85.11
2017-08-24T06:00:16.501Z,84.88
2017-08-24T06:01:16.495Z,84.63
2017-08-24T06:02:16.493Z,83.29
2017-08-24T06:03:16.487Z,83.53
2017-08-24T06:04:16.482Z,84.21
2017-08-24T06:05:16.481Z,84.21
2017-08-24T06:06:16.475Z,84.11
2017-08-24T06:07:16.477Z,83.53
2017-08-24T06:08:16.463Z,83.34
2017-08-24T06:09:16.458Z,84.01
2017-08-24T06:10:16.457Z,84.21
2017-08-24T06:11:16.451Z,84.01
2017-08-24T06:12:16.448Z,84.30
2017-08-24T06:13:16.441Z,83.73
2017-08-24T06:14:16.441Z,84.50
2017-08-24T06:15:16.435Z,84.59
2017-08-24T06:16:16.433Z,84.21
2017-08-24T06:17:16.432Z,83.44
2017-08-24T06:18:16.427Z,83.92
2017-08-24T06:19:16.425Z,83.83
2017-08-24T06:20:16.419Z,83.53
2017-08-24T06:21:16.413Z,83.63
2017-08-24T06:22:16.412Z,83.34
2017-08-24T06:23:16.442Z,83.44
2017-08-24T06:24:16.396Z,83.83
2017-08-24T06:25:16.395Z,83.53
2017-08-24T06:26:16.389Z,83.83
2017-08-24T06:27:16.389Z,83.39
2017-08-24T06:28:16.381Z,83.48
2017-08-24T06:29:16.380Z,83.96
2017-08-24T06:30:16.374Z,83.86
2017-08-24T06:31:16.373Z,83.39
2017-08-24T06:32:16.372Z,83.00
2017-08-24T06:33:16.366Z,83.04
2017-08-24T06:34:16.365Z,82.37
2017-08-24T06:35:16.360Z,82.17
2017-08-24T06:36:16.354Z,81.70
2017-08-24T06:37:16.353Z,80.77
2017-08-24T06:38:16.347Z,80.48
2017-08-24T06:39:16.346Z,79.69
2017-08-24T06:40:16.344Z,78.63
2017-08-24T06:41:16.331Z,77.38
2017-08-24T06:42:16.332Z,76.90
2017-08-24T06:43:16.326Z,76.17
2017-08-24T06:44:16.325Z,76.03
2017-08-24T06:45:16.321Z,76.61
2017-08-24T06:46:16.325Z,76.61
2017-08-24T06:47:16.314Z,76.13
2017-08-24T06:48:16.315Z,76.07
2017-08-24T06:49:16.316Z,76.42
2017-08-24T06:50:16.311Z,76.42
2017-08-24T06:51:16.311Z,76.32
2017-08-24T06:52:16.306Z,75.93
2017-08-24T06:53:16.306Z,76.13
2017-08-24T06:54:16.301Z,76.13
2017-08-24T06:55:16.301Z,76.23
2017-08-24T06:56:16.294Z,76.13
2017-08-24T06:57:16.289Z,76.13
2017-08-24T06:58:16.289Z,76.23
2017-08-24T06:59:16.284Z,76.51
2017-08-24T07:00:16.285Z,76.03
2017-08-24T07:01:16.288Z,76.42
2017-08-24T07:02:16.279Z,76.13
2017-08-24T07:03:16.277Z,76.42
2017-08-24T07:04:16.281Z,76.61
2017-08-24T07:05:16.278Z,77.25
2017-08-24T07:06:16.276Z,77.53
2017-08-24T07:07:16.274Z,77.92
2017-08-24T07:08:16.270Z,77.63
2017-08-24T07:09:16.266Z,77.76
2017-08-24T07:10:16.266Z,78.11
2017-08-24T07:11:16.262Z,78.02
2017-08-24T07:12:16.255Z,78.06
2017-08-24T07:13:16.255Z,77.53
2017-08-24T07:14:16.251Z,77.73
2017-08-24T07:15:16.250Z,77.53
2017-08-24T07:16:16.245Z,77.67
2017-08-24T07:17:16.246Z,78.11
2017-08-24T07:18:16.242Z,78.73
2017-08-24T07:19:16.242Z,78.15
2017-08-24T07:20:16.242Z,77.63
2017-08-24T07:21:16.238Z,77.44
2017-08-24T07:22:16.239Z,77.48
2017-08-24T07:23:16.234Z,77.58
2017-08-24T07:25:16.251Z,76.90
2017-08-24T07:26:16.230Z,76.80
2017-08-24T07:27:16.225Z,76.71
2017-08-24T07:28:16.224Z,76.80
2017-08-24T07:29:16.218Z,77.48
2017-08-24T07:30:16.217Z,77.73
2017-08-24T07:31:16.215Z,77.86
2017-08-24T07:32:16.211Z,77.51
2017-08-24T07:33:16.211Z,76.07
2017-08-24T07:34:16.206Z,76.55
2017-08-24T07:35:16.207Z,76.07
2017-08-24T07:36:16.203Z,75.72
2017-08-24T07:37:16.205Z,74.76
2017-08-24T07:38:16.205Z,74.08
2017-08-24T07:39:16.202Z,73.83
2017-08-24T07:40:16.201Z,73.25
2017-08-24T07:41:16.200Z,72.67
2017-08-24T07:42:16.197Z,72.67
2017-08-24T07:43:16.210Z,73.15
2017-08-24T07:44:16.195Z,72.86
2017-08-24T07:45:16.188Z,73.63
2017-08-24T07:46:16.189Z,73.44
2017-08-24T07:47:16.311Z,73.35
2017-08-24T07:48:16.339Z,73.15
2017-08-24T07:49:16.289Z,72.83
2017-08-24T07:50:16.181Z,73.50
2017-08-24T07:51:16.178Z,73.11
2017-08-24T07:52:16.178Z,73.69
2017-08-24T07:53:16.181Z,74.47
2017-08-24T07:54:16.177Z,74.08
2017-08-24T07:55:16.179Z,74.33
2017-08-24T07:56:16.174Z,74.82
2017-08-24T07:57:16.168Z,76.07
2017-08-24T07:58:16.171Z,76.45
2017-08-24T07:59:16.165Z,76.07
2017-08-24T08:00:16.165Z,75.88
2017-08-24T08:01:16.167Z,75.62
2017-08-24T08:02:16.164Z,74.57
2017-08-24T08:03:16.170Z,75.24
2017-08-24T08:04:16.160Z,74.76
2017-08-24T08:05:16.160Z,73.93
2017-08-24T08:06:16.156Z,73.19
2017-08-24T08:07:16.157Z,72.55
2017-08-24T08:08:16.159Z,71.88
2017-08-24T08:09:16.147Z,71.36
2017-08-24T08:10:16.148Z,71.84
2017-08-24T08:11:16.146Z,71.94
2017-08-24T08:12:16.146Z,70.46
2017-08-24T08:13:16.145Z,68.75
2017-08-24T08:14:16.142Z,68.46
2017-08-24T08:15:16.142Z,68.08
2017-08-24T08:16:16.143Z,67.49
2017-08-24T08:17:16.144Z,66.85
2017-08-24T08:18:16.145Z,66.47
2017-08-24T08:19:16.143Z,65.69
2017-08-24T08:20:16.143Z,64.89
2017-08-24T08:22:16.143Z,63.89
2017-08-24T08:23:16.144Z,64.20
2017-08-24T08:24:16.140Z,63.89
2017-08-24T08:25:16.144Z,63.98
2017-08-24T08:26:16.143Z,63.89
2017-08-24T08:28:16.138Z,65.01
2017-08-24T08:29:16.141Z,65.98
2017-08-24T08:30:16.139Z,65.88
2017-08-24T08:32:16.141Z,65.56
2017-08-24T08:33:16.143Z,66.33
2017-08-24T08:34:16.141Z,66.14
2017-08-24T08:35:16.149Z,65.75
2017-08-24T08:36:16.149Z,66.82
2017-08-24T08:37:16.148Z,66.53
2017-08-24T08:38:16.150Z,66.82
2017-08-24T08:39:16.147Z,66.88
2017-08-24T08:40:16.150Z,66.98
2017-08-24T08:41:16.148Z,67.17
2017-08-24T08:42:16.151Z,67.66
2017-08-24T08:43:16.152Z,67.46
2017-08-24T08:44:16.145Z,66.88
2017-08-24T08:45:16.148Z,67.08
2017-08-24T08:46:16.146Z,67.75
2017-08-24T08:47:16.148Z,67.14
2017-08-24T08:48:16.148Z,68.10
2017-08-24T08:49:16.145Z,68.78
2017-08-24T08:50:16.151Z,69.13
2017-08-24T08:52:16.146Z,69.71
2017-08-24T08:53:16.150Z,69.94
2017-08-24T08:54:16.151Z,70.23
2017-08-24T08:55:16.149Z,69.74
2017-08-24T08:56:16.150Z,69.56
2017-08-24T08:57:16.147Z,69.65
2017-08-24T08:58:16.149Z,69.36
2017-08-24T08:59:16.147Z,69.36
2017-08-24T09:00:16.148Z,69.65
2017-08-24T09:01:16.142Z,68.88
2017-08-24T09:02:16.141Z,68.78
2017-08-24T09:03:16.149Z,68.43
2017-08-24T09:04:16.139Z,68.17
2017-08-24T09:05:16.143Z,67.49
2017-08-24T09:06:16.144Z,67.49
2017-08-24T09:07:16.143Z,67.01
2017-08-24T09:08:16.146Z,66.88
2017-08-24T09:09:16.138Z,67.56
2017-08-24T09:10:16.136Z,68.10
2017-08-24T09:11:16.139Z,68.59
2017-08-24T09:12:16.134Z,67.91
2017-08-24T09:13:16.137Z,67.82
2017-08-24T09:14:16.135Z,68.40
2017-08-24T09:15:16.138Z,68.27
2017-08-24T09:16:16.134Z,67.40
2017-08-24T09:17:16.138Z,67.01
2017-08-24T09:18:16.140Z,67.11
2017-08-24T09:19:16.138Z,66.53
2017-08-24T09:20:16.142Z,66.72
2017-08-24T09:21:16.141Z,67.30
2017-08-24T09:22:16.138Z,66.56
2017-08-24T09:23:16.140Z,65.53
2017-08-24T09:24:16.137Z,64.56
2017-08-24T09:25:16.131Z,64.20
2017-08-24T09:26:16.135Z,61.81
2017-08-24T09:27:16.134Z,58.47
2017-08-24T09:28:16.136Z,57.43
2017-08-24T09:29:16.134Z,55.85
2017-08-24T09:30:16.138Z,55.73
2017-08-24T09:31:16.137Z,56.21
2017-08-24T09:32:16.140Z,56.76
2017-08-24T09:33:16.149Z,56.28
2017-08-24T09:34:16.147Z,56.28
2017-08-24T09:35:16.150Z,55.80
2017-08-24T09:36:16.149Z,53.30
2017-08-24T09:37:16.151Z,53.47
2017-08-24T09:38:16.156Z,52.28
2017-08-24T09:39:16.158Z,51.67
2017-08-24T09:40:16.161Z,51.75
2017-08-24T09:41:16.166Z,51.45
2017-08-24T09:42:16.166Z,52.21
2017-08-24T09:43:16.167Z,52.72
2017-08-24T09:44:16.171Z,51.75
2017-08-24T09:45:16.173Z,52.04
2017-08-24T09:46:16.175Z,51.45
2017-08-24T09:47:16.180Z,51.84
2017-08-24T09:48:16.182Z,51.92
2017-08-24T09:49:16.190Z,52.40
2017-08-24T09:50:16.195Z,51.43
2017-08-24T09:51:16.198Z,48.51
2017-08-24T09:52:16.203Z,45.55
2017-08-24T09:53:16.206Z,44.04
2017-08-24T09:54:16.208Z,44.60
2017-08-24T09:55:16.215Z,46.61
2017-08-24T09:56:16.217Z,46.83
2017-08-24T09:57:16.218Z,47.95
2017-08-24T09:58:16.250Z,48.22
2017-08-24T09:59:16.229Z,48.24
2017-08-24T10:00:16.234Z,46.58
2017-08-24T10:01:16.238Z,43.93
2017-08-24T10:02:16.246Z,42.42
2017-08-24T10:03:16.249Z,43.65
2017-08-24T10:04:16.256Z,42.95
2017-08-24T10:05:16.266Z,41.68
2017-08-24T10:06:16.272Z,38.58
2017-08-24T10:07:16.281Z,38.37
2017-08-24T10:08:16.283Z,36.42
2017-08-24T10:09:16.290Z,37.30
2017-08-24T10:10:16.297Z,36.16
2017-08-24T10:11:16.303Z,35.41
2017-08-24T10:12:16.311Z,33.65
2017-08-24T10:13:16.325Z,33.10
2017-08-24T10:14:16.332Z,32.59
2017-08-24T10:15:16.344Z,32.80
2017-08-24T10:16:16.350Z,30.83
2017-08-24T10:17:16.362Z,32.01
2017-08-24T10:18:16.371Z,31.17
2017-08-24T10:19:16.385Z,30.11
2017-08-24T10:20:16.393Z,28.72
2017-08-24T10:21:16.401Z,30.04
2017-08-24T10:22:16.415Z,31.03
2017-08-24T10:23:16.424Z,31.01
2017-08-24T10:24:16.437Z,32.18
2017-08-24T10:25:16.452Z,31.03
2017-08-24T10:26:16.461Z,29.69
2017-08-24T10:27:16.476Z,29.11
2017-08-24T10:28:16.485Z,29.07
2017-08-24T10:29:16.502Z,31.07
2017-08-24T10:30:16.546Z,31.61
2017-08-24T10:31:16.601Z,34.05
2017-08-24T10:32:16.542Z,34.13
2017-08-24T10:33:16.552Z,34.80
2017-08-24T10:34:16.566Z,35.55
2017-08-24T10:35:16.577Z,36.04
2017-08-24T10:36:16.590Z,36.43
2017-08-24T10:37:16.602Z,36.51
2017-08-24T10:38:16.609Z,36.51
2017-08-24T10:39:16.622Z,37.00
2017-08-24T10:40:16.629Z,36.39
2017-08-24T10:41:16.641Z,34.83
2017-08-24T10:42:16.654Z,34.15
2017-08-24T10:43:16.664Z,34.06
2017-08-24T10:44:16.675Z,34.61
2017-08-24T10:45:16.691Z,35.25
2017-08-24T10:46:16.700Z,36.40
2017-08-24T10:47:16.713Z,38.53
2017-08-24T10:48:16.721Z,38.89
2017-08-24T10:49:16.732Z,39.20
2017-08-24T10:50:16.742Z,39.28
2017-08-24T10:51:16.754Z,39.41
2017-08-24T10:52:16.762Z,39.41
2017-08-24T10:53:16.768Z,39.33
2017-08-24T10:54:16.778Z,38.41
2017-08-24T10:55:16.786Z,37.52
2017-08-24T10:56:16.798Z,37.61
2017-08-24T10:57:16.808Z,37.55
2017-08-24T10:58:16.814Z,39.20
2017-08-24T10:59:16.829Z,40.16
2017-08-24T11:00:16.833Z,39.94
2017-08-24T11:01:16.847Z,40.43
2017-08-24T11:02:16.859Z,40.99
2017-08-24T11:03:16.865Z,41.66
2017-08-24T11:04:16.876Z,42.24
2017-08-24T11:05:16.881Z,40.97
2017-08-24T11:06:16.896Z,39.04
2017-08-24T11:07:16.899Z,38.96
2017-08-24T11:08:16.918Z,38.59
2017-08-24T11:09:16.912Z,38.76
2017-08-24T11:10:16.919Z,37.63
2017-08-24T11:11:16.958Z,37.07
2017-08-24T11:12:16.940Z,36.11
2017-08-24T11:13:16.943Z,35.64
2017-08-24T11:14:16.954Z,34.49
2017-08-24T11:15:16.961Z,33.62
2017-08-24T11:16:16.973Z,33.05
2017-08-24T11:17:16.986Z,31.98
2017-08-24T11:18:16.994Z,31.56
2017-08-24T11:19:17.007Z,30.88
2017-08-24T11:20:17.016Z,30.91
2017-08-24T11:21:17.028Z,30.49
2017-08-24T11:22:17.037Z,31.16
2017-08-24T11:23:17.049Z,31.09
2017-08-24T11:24:17.059Z,31.69
2017-08-24T11:25:17.066Z,31.67
2017-08-24T11:26:17.088Z,31.56
2017-08-24T11:27:17.089Z,31.64
2017-08-24T11:28:17.100Z,32.46
2017-08-24T11:29:17.112Z,34.01
2017-08-24T11:30:17.122Z,34.77
2017-08-24T11:31:17.142Z,36.02
2017-08-24T11:32:17.141Z,37.26
2017-08-24T11:33:17.157Z,38.30
2017-08-24T11:34:17.179Z,39.06
2017-08-24T11:35:17.179Z,38.84
2017-08-24T11:36:17.189Z,40.01
2017-08-24T11:37:17.197Z,40.70
2017-08-24T11:38:17.207Z,41.38
2017-08-24T11:39:17.214Z,40.89
2017-08-24T11:40:17.223Z,40.80
2017-08-24T11:41:17.227Z,40.48
2017-08-24T11:42:17.232Z,40.29
2017-08-24T11:43:17.244Z,40.00
2017-08-24T11:44:17.247Z,40.00
2017-08-24T11:45:17.291Z,41.36
2017-08-24T11:46:17.298Z,41.46
2017-08-24T11:47:17.270Z,41.83
2017-08-24T11:48:17.278Z,42.12
2017-08-24T11:49:17.289Z,42.49
2017-08-24T11:50:17.294Z,42.71
2017-08-24T11:51:17.300Z,42.12
2017-08-24T11:52:17.307Z,41.91
2017-08-24T11:53:17.312Z,42.79
2017-08-24T11:54:17.322Z,43.04
2017-08-24T11:55:17.324Z,43.35
2017-08-24T11:56:17.335Z,43.13
2017-08-24T11:57:17.329Z,43.91
2017-08-24T11:58:17.335Z,43.79
2017-08-24T11:59:17.340Z,44.38
2017-08-24T12:00:17.345Z,44.76
2017-08-24T12:01:17.350Z,44.94
2017-08-24T12:02:17.353Z,45.23
2017-08-24T12:03:17.360Z,45.06
2017-08-24T12:04:17.362Z,45.54
2017-08-24T12:05:17.370Z,45.06
2017-08-24T12:06:17.378Z,46.32
2017-08-24T12:07:17.381Z,46.44
2017-08-24T12:08:17.384Z,45.37
2017-08-24T12:09:17.387Z,45.10
2017-08-24T12:10:17.395Z,44.13
2017-08-24T12:11:17.399Z,43.52
2017-08-24T12:12:17.402Z,43.71
2017-08-24T12:13:17.403Z,44.10
2017-08-24T12:14:17.405Z,45.18
2017-08-24T12:15:17.413Z,44.98
2017-08-24T12:16:17.413Z,43.70
2017-08-24T12:17:17.422Z,44.09
2017-08-24T12:18:17.428Z,45.25
2017-08-24T12:19:17.438Z,45.25
2017-08-24T12:20:17.435Z,45.25
2017-08-24T12:21:17.434Z,44.65
2017-08-24T12:22:17.436Z,45.42
2017-08-24T12:23:17.444Z,45.81
2017-08-24T12:24:17.444Z,46.30
2017-08-24T12:25:17.449Z,46.37
2017-08-24T12:26:17.451Z,47.27
2017-08-24T12:27:17.457Z,47.27
2017-08-24T12:28:17.458Z,46.28
2017-08-24T12:29:17.464Z,45.21
2017-08-24T12:30:17.471Z,45.11
2017-08-24T12:31:17.472Z,45.11
2017-08-24T12:32:17.477Z,46.47
2017-08-24T12:33:17.484Z,46.77
2017-08-24T12:34:17.482Z,47.54
2017-08-24T12:35:17.487Z,46.96
2017-08-24T12:36:17.488Z,46.18
2017-08-24T12:37:17.489Z,47.44
2017-08-24T12:38:17.493Z,48.13
2017-08-24T12:39:17.493Z,47.44
2017-08-24T12:40:17.512Z,46.77
2017-08-24T12:41:17.499Z,47.56
2017-08-24T12:42:17.504Z,47.96
2017-08-24T12:43:17.505Z,47.37
2017-08-24T12:44:17.509Z,46.96
2017-08-24T12:45:17.517Z,47.05
2017-08-24T12:46:17.518Z,47.05
2017-08-24T12:47:17.522Z,46.77
2017-08-24T12:48:17.522Z,46.86
2017-08-24T12:49:17.527Z,46.47
2017-08-24T12:50:17.530Z,46.35
2017-08-24T12:51:17.531Z,46.84
2017-08-24T12:52:17.535Z,46.74
2017-08-24T12:53:17.533Z,46.74
2017-08-24T12:54:17.534Z,47.11
2017-08-24T12:55:17.537Z,46.81
2017-08-24T12:56:17.537Z,47.11
2017-08-24T12:57:17.542Z,47.69